Time;durP1;ratioP1;P1;durP2;ratioP2;P2;SDS_P1;SDS_P2;PMS_P1;PMS_P2;Temp;Humidity;BMP_temperature;BMP_pressure;BME280_temperature;BME280_humidity;BME280_pressure;Samples;Min_cycle;Max_cycle;Signal;HPM_P1;HPM_P2
2021/09/12 00:00:09;;;;;;;17.40;6.13;;;14.80;1.00;;;;;;5035821;28;20386;-78
2021/09/12 00:02:50;;;;;;;12.97;6.43;;;14.80;1.00;;;;;;5035494;28;20374;-78
2021/09/12 00:05:37;;;;;;;11.80;6.80;;;14.80;1.00;;;;;;5035726;28;20461;-78
2021/09/12 00:08:43;;;;;;;13.83;6.00;;;14.80;1.00;;;;;;5016774;28;20745;-77
2021/09/12 00:11:14;;;;;;;23.70;6.10;;;14.80;1.00;;;;;;5015839;28;20399;-77
2021/09/12 00:14:19;;;;;;;11.57;6.27;;;14.70;1.00;;;;;;5026286;28;20438;-77
2021/09/12 00:17:19;;;;;;;14.47;6.40;;;14.70;1.00;;;;;;5022371;28;20419;-77
2021/09/12 00:19:56;;;;;;;13.20;6.40;;;14.70;1.00;;;;;;5035220;28;20406;-77
2021/09/12 00:22:49;;;;;;;15.90;5.80;;;14.60;1.00;;;;;;5035518;28;20816;-78
2021/09/12 00:25:37;;;;;;;22.73;6.47;;;14.60;1.00;;;;;;5035154;28;20457;-78
2021/09/12 00:28:14;;;;;;;11.30;5.80;;;14.60;1.00;;;;;;5034538;28;20426;-77
2021/09/12 00:34:20;;;;;;;10.73;5.37;;;14.60;1.00;;;;;;5034999;28;20458;-77
2021/09/12 00:37:13;;;;;;;14.50;5.40;;;14.50;1.00;;;;;;5034536;28;20984;-78
2021/09/12 00:43:19;;;;;;;6.37;5.10;;;14.40;1.00;;;;;;5034652;28;20398;-77
2021/09/12 00:45:57;;;;;;;20.07;5.50;;;14.40;1.00;;;;;;5034817;28;20399;-77
2021/09/12 00:49:01;;;;;;;14.77;4.93;;;14.40;1.00;;;;;;5034483;28;20755;-77
2021/09/12 00:51:32;;;;;;;15.83;5.23;;;14.30;1.00;;;;;;5035074;28;20380;-78
2021/09/12 00:54:49;;;;;;;24.40;6.80;;;15.50;1.00;;;;;;5034807;28;20395;-78
2021/09/12 00:57:50;;;;;;;30.03;5.87;;;14.30;1.00;;;;;;5021675;28;20414;-78
2021/09/12 01:00:49;;;;;;;9.03;4.97;;;14.30;1.00;;;;;;5034689;28;20450;-79
2021/09/12 01:03:20;;;;;;;12.73;5.50;;;14.20;1.00;;;;;;5034557;28;20729;-78
2021/09/12 01:06:20;;;;;;;10.63;5.67;;;14.20;1.00;;;;;;5034143;28;20814;-79
2021/09/12 01:08:50;;;;;;;15.70;5.27;;;14.20;1.00;;;;;;5019124;28;20447;-78
2021/09/12 01:11:49;;;;;;;12.13;5.27;;;14.20;1.00;;;;;;5034314;28;20399;-77
2021/09/12 01:14:49;;;;;;;13.90;4.90;;;14.20;1.00;;;;;;5025149;28;20395;-78
2021/09/12 01:17:28;;;;;;;16.93;5.57;;;14.30;1.00;;;;;;5014645;28;20435;-77
2021/09/12 01:20:03;;;;;;;10.93;5.23;;;14.30;1.00;;;;;;5026047;28;20414;-77
2021/09/12 01:26:20;;;;;;;12.60;5.63;;;14.40;1.00;;;;;;5034327;28;20425;-77
2021/09/12 01:29:02;;;;;;;7.77;5.50;;;14.50;1.00;;;;;;5033555;28;20484;-77
2021/09/12 01:31:55;;;;;;;18.10;5.70;;;14.50;1.00;;;;;;5033766;28;20438;-77
2021/09/12 01:37:50;;;;;;;11.07;5.60;;;14.70;1.00;;;;;;5014336;28;20454;-78
2021/09/12 01:40:49;;;;;;;16.20;5.50;;;14.80;1.00;;;;;;5029658;28;20388;-77
2021/09/12 01:43:50;;;;;;;12.63;5.60;;;14.80;1.00;;;;;;5032406;28;20809;-77
2021/09/12 01:46:50;;;;;;;10.77;5.27;;;14.90;1.00;;;;;;5033917;28;20358;-77
2021/09/12 01:49:20;;;;;;;13.20;5.97;;;14.90;1.00;;;;;;5033394;28;20446;-77
2021/09/12 01:51:51;;;;;;;10.97;5.20;;;14.90;1.00;;;;;;5033986;28;20396;-78
2021/09/12 01:55:07;;;;;;;12.30;5.40;;;14.90;1.00;;;;;;5033442;28;20416;-77
2021/09/12 01:57:33;;;;;;;19.40;5.70;;;14.90;1.00;;;;;;5033824;28;20361;-77
2021/09/12 02:00:08;;;;;;;9.60;5.30;;;15.00;1.00;;;;;;5033218;28;20381;-77
2021/09/12 02:02:38;;;;;;;8.47;5.80;;;15.00;1.00;;;;;;5033844;28;20175;-77
2021/09/12 02:05:14;;;;;;;13.60;6.30;;;15.10;1.00;;;;;;5015407;28;20412;-77
2021/09/12 02:07:50;;;;;;;15.83;5.93;;;15.20;1.00;;;;;;5014167;28;20918;-78
2021/09/12 02:10:26;;;;;;;10.53;5.80;;;15.20;1.00;;;;;;5025500;28;20929;-79
2021/09/12 02:12:51;;;;;;;8.50;5.40;;;15.20;1.00;;;;;;5029852;28;20517;-79
2021/09/12 02:15:20;;;;;;;9.80;5.10;;;15.30;1.00;;;;;;5033323;28;20560;-79
2021/09/12 02:17:50;;;;;;;9.00;5.50;;;15.30;1.00;;;;;;5030324;28;20298;-79
2021/09/12 02:20:20;;;;;;;8.40;5.10;;;15.40;1.00;;;;;;5023758;28;20423;-79
2021/09/12 02:22:50;;;;;;;6.87;5.03;;;15.40;1.00;;;;;;5012853;28;20501;-78
2021/09/12 02:25:20;;;;;;;7.00;5.43;;;15.50;1.00;;;;;;5013783;28;20399;-77
2021/09/12 02:27:56;;;;;;;9.60;5.57;;;15.50;1.00;;;;;;5013479;28;20907;-79
2021/09/12 02:30:21;;;;;;;14.07;5.80;;;15.50;1.00;;;;;;5025409;28;20643;-77
2021/09/12 02:33:13;;;;;;;6.87;5.20;;;15.50;1.00;;;;;;5033666;28;20475;-77
2021/09/12 02:35:50;;;;;;;10.43;4.77;;;15.60;1.00;;;;;;5033641;28;20173;-77
2021/09/12 02:38:20;;;;;;;10.30;5.50;;;15.60;1.00;;;;;;5033728;28;20924;-78
2021/09/12 02:40:45;;;;;;;16.43;5.20;;;15.60;1.00;;;;;;5032590;28;20510;-78
2021/09/12 02:43:20;;;;;;;8.67;5.03;;;15.70;1.00;;;;;;5033280;28;20444;-77
2021/09/12 02:45:45;;;;;;;9.27;5.10;;;15.70;1.00;;;;;;5032664;28;20635;-77
2021/09/12 02:48:11;;;;;;;13.07;4.90;;;15.70;1.00;;;;;;5032803;28;20412;-77
2021/09/12 02:50:37;;;;;;;5.47;4.97;;;15.70;1.00;;;;;;5032087;28;20167;-77
2021/09/12 02:53:02;;;;;;;9.37;5.90;;;15.70;1.00;;;;;;5033126;28;20164;-78
2021/09/12 02:55:49;;;;;;;9.30;5.43;;;15.70;1.00;;;;;;5018153;28;20169;-78
2021/09/12 02:58:20;;;;;;;12.67;5.30;;;15.80;1.00;;;;;;5013604;28;20193;-78
2021/09/12 03:00:50;;;;;;;13.60;5.50;;;15.70;1.00;;;;;;5018421;28;20909;-78
2021/09/12 03:03:20;;;;;;;13.90;5.87;;;15.70;1.00;;;;;;5036004;28;20391;-78
2021/09/12 03:06:19;;;;;;;12.40;5.90;;;15.70;1.00;;;;;;5020585;28;20385;-78
2021/09/12 03:08:50;;;;;;;11.33;5.70;;;15.70;1.00;;;;;;5017254;28;20860;-78
2021/09/12 03:11:20;;;;;;;9.53;5.53;;;15.60;1.00;;;;;;5016930;28;20448;-77
2021/09/12 03:13:50;;;;;;;11.37;5.43;;;15.60;1.00;;;;;;5026204;28;20531;-77
2021/09/12 03:16:20;;;;;;;12.13;5.00;;;15.60;1.00;;;;;;5034921;28;20423;-77
2021/09/12 03:18:51;;;;;;;9.70;5.50;;;15.60;1.00;;;;;;5017583;28;20374;-77
2021/09/12 03:21:26;;;;;;;18.67;5.50;;;15.60;1.00;;;;;;5017030;28;20408;-77
2021/09/12 03:23:56;;;;;;;12.40;5.57;;;15.50;1.00;;;;;;5016873;28;20864;-78
2021/09/12 03:26:49;;;;;;;13.67;5.37;;;15.50;1.00;;;;;;5036023;28;20898;-79
2021/09/12 03:29:19;;;;;;;11.13;5.27;;;15.60;1.00;;;;;;5036353;28;20499;-79
2021/09/12 03:31:44;;;;;;;14.27;5.30;;;15.60;1.00;;;;;;5035910;28;20443;-78
2021/09/12 03:37:32;;;;;;;11.27;4.87;;;15.50;1.00;;;;;;5036202;28;20160;-78
2021/09/12 03:40:02;;;;;;;11.33;4.87;;;15.50;1.00;;;;;;5036058;28;20394;-78
2021/09/12 03:42:28;;;;;;;14.60;5.00;;;15.40;1.00;;;;;;5035412;28;20627;-78
2021/09/12 03:48:16;;;;;;;9.27;6.03;;;15.40;1.00;;;;;;5016037;28;20180;-78
2021/09/12 03:50:44;;;;;;;20.83;6.60;;;15.60;1.00;;;;;;5019723;28;20403;-78
2021/09/12 03:53:26;;;;;;;18.30;7.10;;;15.40;1.00;;;;;;5016865;28;20169;-78
2021/09/12 03:56:19;;;;;;;15.57;6.20;;;15.40;1.00;;;;;;5015811;28;20869;-78
2021/09/12 04:06:13;;;;;;;11.43;5.93;;;15.30;1.00;;;;;;5035144;28;20387;-77
2021/09/12 04:15:23;;;;;;;17.73;6.27;;;;;;;;;;5018413;28;20930;-86
2021/09/12 04:18:37;;;;;;;15.00;6.57;;;15.30;1.00;;;;;;5028659;28;20472;-80
2021/09/12 04:24:25;;;;;;;26.73;7.03;;;15.20;1.00;;;;;;5034958;28;20391;-80
2021/09/12 04:30:14;;;;;;;16.37;6.53;;;15.20;1.00;;;;;;5015134;28;20228;-80
2021/09/12 04:32:50;;;;;;;38.53;6.13;;;15.20;1.00;;;;;;5026002;28;20501;-83
2021/09/12 04:38:37;;;;;;;10.13;6.67;;;15.20;1.00;;;;;;5035323;28;20430;-80
2021/09/12 04:41:43;;;;;;;11.00;6.83;;;15.20;1.00;;;;;;5034797;28;20381;-80
2021/09/12 04:44:26;;;;;;;12.23;6.67;;;15.20;1.00;;;;;;5034439;28;20181;-80
2021/09/12 04:50:14;;;;;;;15.33;7.00;;;15.10;1.00;;;;;;5034436;28;20474;-80
2021/09/12 04:53:13;;;;;;;13.73;6.67;;;15.10;1.00;;;;;;5034778;28;20845;-80
2021/09/12 05:02:38;;;;;;;11.80;6.87;;;15.00;1.00;;;;;;5034514;28;20361;-78
2021/09/12 05:05:08;;;;;;;21.87;7.43;;;14.90;1.00;;;;;;5024991;28;20931;-78
2021/09/12 05:08:01;;;;;;;15.30;7.30;;;15.00;1.00;;;;;;5034486;28;20418;-79
2021/09/12 05:11:19;;;;;;;14.90;7.00;;;14.90;1.00;;;;;;5033283;28;20398;-79
2021/09/12 05:14:31;;;;;;;8.70;6.40;;;14.90;1.00;;;;;;5025585;28;20433;-78
2021/09/12 05:23:41;;;;;;;12.90;7.10;;;14.80;1.00;;;;;;5033722;28;20826;-79
2021/09/12 05:29:28;;;;;;;12.50;7.00;;;14.70;1.00;;;;;;5033717;28;20245;-79
2021/09/12 05:32:37;;;;;;;10.13;6.40;;;14.70;1.00;;;;;;5034252;28;20414;-78
2021/09/12 05:42:19;;;;;;;10.80;6.57;;;14.70;1.00;;;;;;5013831;28;20402;-80
2021/09/12 05:45:21;;;;;;;15.50;6.97;;;14.70;1.00;;;;;;5021441;28;20386;-79
2021/09/12 05:48:37;;;;;;;11.70;6.73;;;14.70;1.00;;;;;;5033971;28;20358;-79
2021/09/12 05:54:25;;;;;;;13.60;6.00;;;14.70;1.00;;;;;;5031686;28;20445;-80
2021/09/12 06:00:12;;;;;;;18.00;6.93;;;14.70;1.00;;;;;;5013782;28;20184;-80
2021/09/12 06:03:08;;;;;;;11.13;6.73;;;14.80;1.00;;;;;;5014063;28;20370;-80
2021/09/12 06:09:14;;;;;;;10.77;6.73;;;14.80;1.00;;;;;;5033497;28;20436;-80
2021/09/12 06:15:03;;;;;;;9.27;6.47;;;14.90;1.00;;;;;;5027522;28;20389;-80
2021/09/12 06:17:38;;;;;;;15.10;7.53;;;14.90;1.00;;;;;;5015123;28;20535;-80
2021/09/12 06:23:26;;;;;;;11.77;7.77;;;15.10;1.00;;;;;;5013882;28;20375;-80
2021/09/12 06:29:13;;;;;;;19.30;7.60;;;15.20;1.00;;;;;;5033458;28;20207;-80
2021/09/12 06:32:07;;;;;;;14.60;7.30;;;15.30;1.00;;;;;;5033389;28;20417;-80
2021/09/12 06:34:38;;;;;;;10.73;7.13;;;15.40;1.00;;;;;;5033387;28;20508;-80
2021/09/12 06:37:04;;;;;;;15.73;8.03;;;15.50;1.00;;;;;;5034208;28;20453;-81
2021/09/12 06:39:55;;;;;;;12.93;7.50;;;15.50;1.00;;;;;;5037675;28;20350;-79
2021/09/12 06:46:37;;;;;;;14.73;8.77;;;15.80;1.00;;;;;;5036418;28;20408;-78
2021/09/12 06:52:25;;;;;;;12.10;7.93;;;15.90;1.00;;;;;;5037033;28;20396;-79
2021/09/12 06:58:12;;;;;;;13.87;8.00;;;16.10;1.00;;;;;;5017142;28;20180;-80
2021/09/12 07:01:08;;;;;;;15.20;7.50;;;16.20;1.00;;;;;;5016964;28;20375;-80
2021/09/12 07:07:08;;;;;;;12.83;7.50;;;;;;;;;;5030545;28;20794;-80
2021/09/12 07:12:56;;;;;;;11.47;7.37;;;16.50;1.00;;;;;;5034885;28;20927;-80
2021/09/12 07:15:38;;;;;;;11.90;7.63;;;16.60;1.00;;;;;;5026900;28;20419;-79
2021/09/12 07:24:47;;;;;;;8.97;6.43;;;16.90;1.00;;;;;;5036619;28;20386;-85
2021/09/12 07:27:38;;;;;;;11.00;6.00;;;16.90;1.00;;;;;;5020404;28;20432;-84
2021/09/12 07:30:09;;;;;;;9.60;5.60;;;17.00;1.00;;;;;;5016004;28;20225;-83
2021/09/12 07:33:02;;;;;;;10.10;5.97;;;17.10;1.00;;;;;;5016087;28;20416;-83
2021/09/12 07:38:50;;;;;;;7.10;4.87;;;;;;;;;;5016544;28;20372;-86
2021/09/12 07:44:37;;;;;;;5.40;4.03;;;17.50;1.00;;;;;;5016845;28;20410;-86
2021/09/12 07:53:47;;;;;;;9.50;3.90;;;;;;;;;;5036661;28;20368;-85
2021/09/12 07:59:35;;;;;;;4.27;3.87;;;;;;;;;;5036408;28;20406;-87
2021/09/12 08:05:23;;;;;;;5.80;3.90;;;;;;;;;;5035958;28;20397;-86
2021/09/12 08:11:11;;;;;;;3.50;3.20;;;;;;;;;;5016511;28;20369;-85
2021/09/12 08:13:38;;;;;;;3.80;3.23;;;;;;;;;;5020766;28;20787;-85
2021/09/12 08:16:32;;;;;;;3.83;3.00;;;18.60;1.00;;;;;;5022170;28;20464;-84
2021/09/12 08:22:32;;;;;;;3.97;3.57;;;;;;;;;;5028487;28;20956;-84
2021/09/12 08:29:07;;;;;;;6.83;3.30;;;19.00;1.00;;;;;;5035403;28;20452;-86
2021/09/12 08:31:38;;;;;;;6.47;4.20;;;;;;;;;;5034842;28;20487;-86
2021/09/12 08:37:26;;;;;;;4.77;2.77;;;;;;;;;;5035162;28;20419;-86
2021/09/12 08:40:08;;;;;;;3.37;3.07;;;;;;;;;;5034435;28;20413;-86
2021/09/12 08:42:41;;;;;;;3.17;2.70;;;;;;;;;;5033968;28;20464;-84
2021/09/12 08:45:09;;;;;;;10.63;2.47;;;19.50;1.00;;;;;;5035385;28;20502;-79
2021/09/12 08:51:14;;;;;;;4.90;2.70;;;19.70;1.00;;;;;;5030876;28;20747;-78
2021/09/12 08:53:40;;;;;;;4.93;2.53;;;19.80;1.00;;;;;;5034170;28;20430;-77
2021/09/12 08:56:09;;;;;;;3.73;2.73;;;19.90;1.00;;;;;;5034109;28;20404;-77
2021/09/12 08:58:55;;;;;;;6.10;2.40;;;20.00;1.00;;;;;;5016606;28;20405;-77
2021/09/12 09:01:38;;;;;;;4.67;2.70;;;20.00;1.00;;;;;;5014533;28;20471;-77
2021/09/12 09:04:08;;;;;;;4.43;2.23;;;20.20;1.00;;;;;;5028763;28;20412;-78
2021/09/12 09:06:38;;;;;;;2.33;2.13;;;20.30;1.00;;;;;;5016089;28;20783;-78
2021/09/12 09:09:14;;;;;;;2.23;2.03;;;20.30;1.00;;;;;;5014821;28;20452;-77
2021/09/12 09:11:50;;;;;;;3.93;2.33;;;20.40;1.00;;;;;;5014636;28;20397;-77
2021/09/12 09:14:32;;;;;;;2.63;2.40;;;20.50;1.00;;;;;;5027162;28;21003;-77
2021/09/12 09:17:03;;;;;;;5.57;2.50;;;;;;;;;;5014932;28;20448;-77
2021/09/12 09:20:06;;;;;;;7.17;2.73;;;;;;;;;;5013964;28;20397;-77
2021/09/12 09:22:40;;;;;;;7.53;2.77;;;20.70;1.00;;;;;;5043851;28;20427;-77
2021/09/12 09:25:14;;;;;;;4.30;2.50;;;20.80;1.00;;;;;;5031688;28;20411;-78
2021/09/12 09:28:04;;;;;;;2.93;2.70;;;20.80;1.00;;;;;;5032161;28;20422;-77
2021/09/12 09:34:14;;;;;;;6.80;2.50;;;21.00;1.00;;;;;;5042206;28;20460;-78
2021/09/12 09:37:18;;;;;;;4.20;2.20;;;21.10;1.00;;;;;;5052130;28;20430;-78
2021/09/12 09:39:46;;;;;;;3.80;2.20;;;21.10;1.00;;;;;;5052130;28;20424;-79
2021/09/12 09:42:31;;;;;;;3.33;1.77;;;21.20;1.00;;;;;;5052115;28;20398;-78
2021/09/12 09:45:18;;;;;;;2.60;2.17;;;21.20;1.00;;;;;;5051859;28;20441;-78
2021/09/12 09:48:14;;;;;;;2.33;2.03;;;21.40;1.00;;;;;;5034488;28;20928;-78
2021/09/12 09:54:27;;;;;;;2.83;1.97;;;21.20;1.00;;;;;;5041954;28;20479;-77
2021/09/12 09:57:09;;;;;;;2.37;1.97;;;21.20;1.00;;;;;;5052308;28;20396;-77
2021/09/12 09:59:52;;;;;;;11.90;2.10;;;21.30;1.00;;;;;;5033594;28;20408;-77
2021/09/12 10:02:50;;;;;;;1.83;1.73;;;21.40;1.00;;;;;;5033715;28;20399;-77
2021/09/12 10:05:17;;;;;;;3.97;2.10;;;21.50;1.00;;;;;;5032800;28;20415;-77
2021/09/12 10:07:44;;;;;;;2.00;1.90;;;21.60;1.00;;;;;;5033613;28;20433;-78
2021/09/12 10:10:26;;;;;;;2.20;1.70;;;21.60;1.00;;;;;;5033404;28;20994;-77
2021/09/12 10:13:43;;;;;;;5.00;1.70;;;21.60;1.00;;;;;;5035814;28;20543;-77
2021/09/12 10:16:20;;;;;;;2.73;2.10;;;21.70;1.00;;;;;;5037250;28;20420;-77
2021/09/12 10:18:50;;;;;;;3.23;2.27;;;21.80;1.00;;;;;;5027627;28;20456;-76
2021/09/12 10:21:28;;;;;;;1.93;1.83;;;21.90;1.00;;;;;;5025512;28;20438;-78
2021/09/12 10:27:38;;;;;;;3.13;2.07;;;;;;;;;;5034186;28;20450;-77
2021/09/12 10:30:22;;;;;;;7.53;2.00;;;22.30;1.00;;;;;;5037267;28;20459;-77
2021/09/12 10:33:08;;;;;;;1.87;1.77;;;22.50;1.00;;;;;;5037290;28;20411;-76
2021/09/12 10:35:49;;;;;;;2.67;1.90;;;22.70;1.00;;;;;;5036508;28;20412;-76
2021/09/12 10:38:36;;;;;;;1.53;1.43;;;22.80;1.00;;;;;;5036966;28;20855;-78
2021/09/12 10:41:02;;;;;;;2.30;1.40;;;22.70;1.00;;;;;;5037475;28;20737;-76
2021/09/12 10:43:40;;;;;;;2.53;1.90;;;;;;;;;;5037108;28;20413;-78
2021/09/12 10:46:05;;;;;;;4.30;1.97;;;22.70;1.00;;;;;;5037387;28;20166;-76
2021/09/12 10:48:38;;;;;;;1.30;1.20;;;22.70;1.00;;;;;;5036539;28;20416;-76
2021/09/12 10:51:09;;;;;;;1.57;1.20;;;22.70;1.00;;;;;;5037218;28;20154;-76
2021/09/12 10:53:47;;;;;;;3.03;1.60;;;22.70;1.00;;;;;;5036904;28;20418;-76
2021/09/12 10:56:19;;;;;;;2.13;1.30;;;22.80;1.00;;;;;;5037164;28;20405;-75
2021/09/12 10:59:10;;;;;;;1.27;1.17;;;22.90;1.00;;;;;;5037035;28;20424;-78
2021/09/12 11:02:02;;;;;;;1.57;1.20;;;23.10;1.00;;;;;;5037423;28;20398;-78
2021/09/12 11:04:44;;;;;;;4.17;1.50;;;23.30;1.00;;;;;;5036555;28;20466;-78
2021/09/12 11:13:24;;;;;;;1.93;1.17;;;23.80;1.00;;;;;;5019450;28;20450;-79
2021/09/12 11:16:18;;;;;;;1.67;1.53;;;23.70;1.00;;;;;;5027446;28;20436;-79
2021/09/12 11:18:53;;;;;;;5.93;1.47;;;23.80;1.00;;;;;;5019364;28;20429;-79
2021/09/12 11:28:08;;;;;;;1.40;1.10;;;24.50;1.00;;;;;;5036643;28;20536;-76
2021/09/12 11:30:38;;;;;;;2.33;1.50;;;24.50;1.00;;;;;;5017705;28;20465;-76
2021/09/12 11:33:08;;;;;;;2.50;1.30;;;24.70;1.00;;;;;;5020041;28;20435;-76
2021/09/12 11:35:34;;;;;;;1.80;1.60;;;24.90;1.00;;;;;;5029698;28;20441;-76
2021/09/12 11:38:08;;;;;;;3.00;1.10;;;25.00;1.00;;;;;;5036351;28;20479;-76
2021/09/12 11:40:34;;;;;;;6.20;1.77;;;25.10;1.00;;;;;;5035736;28;20421;-76
2021/09/12 11:43:11;;;;;;;1.30;1.00;;;25.20;1.00;;;;;;5035669;28;20916;-76
2021/09/12 11:45:39;;;;;;;2.23;1.43;;;25.30;1.00;;;;;;5036139;28;20401;-76
2021/09/12 11:48:15;;;;;;;3.93;1.47;;;25.30;1.00;;;;;;5036427;28;20400;-76
2021/09/12 11:50:41;;;;;;;3.47;1.60;;;25.20;1.00;;;;;;5017771;28;20447;-76
2021/09/12 11:53:11;;;;;;;1.60;1.50;;;25.00;1.00;;;;;;5016064;28;20537;-76
2021/09/12 11:55:40;;;;;;;1.20;1.20;;;25.00;1.00;;;;;;5016503;28;20174;-77
2021/09/12 11:58:09;;;;;;;1.83;1.50;;;24.90;1.00;;;;;;5016509;28;20561;-77
2021/09/12 12:00:47;;;;;;;2.30;1.57;;;24.70;1.00;;;;;;5031855;28;20512;-77
2021/09/12 12:03:17;;;;;;;1.47;1.37;;;24.60;1.00;;;;;;5035931;28;20414;-76
2021/09/12 12:05:45;;;;;;;2.80;1.50;;;24.40;1.00;;;;;;5035733;28;20474;-77
2021/09/12 12:08:20;;;;;;;1.77;1.67;;;24.30;1.00;;;;;;5035315;28;20422;-76
2021/09/12 12:10:46;;;;;;;1.40;1.30;;;24.10;1.00;;;;;;5035821;28;20467;-77
2021/09/12 12:13:14;;;;;;;6.13;1.60;;;24.00;1.00;;;;;;5030446;28;20427;-77
2021/09/12 12:16:02;;;;;;;6.17;1.53;;;24.10;1.00;;;;;;5032981;28;20180;-78
2021/09/12 12:18:33;;;;;;;1.70;1.60;;;23.90;1.00;;;;;;5030113;28;20414;-77
2021/09/12 12:21:15;;;;;;;1.80;1.70;;;23.90;1.00;;;;;;5035058;28;20397;-78
2021/09/12 12:23:48;;;;;;;3.57;1.80;;;;;;;;;;5022788;28;20409;-78
2021/09/12 12:26:28;;;;;;;1.57;1.47;;;24.00;1.00;;;;;;5022536;28;20409;-78
2021/09/12 12:29:40;;;;;;;1.43;1.33;;;24.10;1.00;;;;;;5035726;28;20479;-78
2021/09/12 12:32:08;;;;;;;1.50;1.40;;;24.10;1.00;;;;;;5035067;28;20512;-78
2021/09/12 12:34:52;;;;;;;1.80;1.47;;;24.20;1.00;;;;;;5023869;28;20492;-78
2021/09/12 12:37:20;;;;;;;7.00;1.50;;;24.30;1.00;;;;;;5022387;28;20492;-78
2021/09/12 12:40:34;;;;;;;1.20;1.10;;;24.30;1.00;;;;;;5035288;28;20427;-78
2021/09/12 12:43:06;;;;;;;4.83;1.50;;;24.50;1.00;;;;;;5034786;28;20428;-78
2021/09/12 12:45:38;;;;;;;1.40;1.30;;;24.50;1.00;;;;;;5035450;28;20429;-76
2021/09/12 12:48:04;;;;;;;1.53;1.40;;;24.80;1.00;;;;;;5022134;28;20431;-76
2021/09/12 12:50:38;;;;;;;4.57;1.50;;;25.00;1.00;;;;;;5014916;28;20451;-77
2021/09/12 12:53:34;;;;;;;5.43;1.87;;;25.10;1.00;;;;;;5029131;28;20430;-76
2021/09/12 12:56:03;;;;;;;4.73;1.60;;;25.10;1.00;;;;;;5028729;28;20414;-77
2021/09/12 12:58:30;;;;;;;2.10;1.27;;;25.10;1.00;;;;;;5034672;28;20507;-77
2021/09/12 13:01:14;;;;;;;2.40;1.40;;;25.10;1.00;;;;;;5034835;28;20410;-76
2021/09/12 13:03:44;;;;;;;8.93;1.50;;;25.00;1.00;;;;;;5034921;28;20484;-77
2021/09/12 13:06:12;;;;;;;1.00;1.00;;;25.10;1.00;;;;;;5034482;28;20416;-76
2021/09/12 13:08:46;;;;;;;1.47;1.37;;;25.20;1.00;;;;;;5033827;28;20410;-77
2021/09/12 13:11:12;;;;;;;27.50;1.60;;;25.30;1.00;;;;;;5030896;28;20418;-76
2021/09/12 13:13:38;;;;;;;1.27;1.10;;;25.30;1.00;;;;;;5028422;28;20932;-77
2021/09/12 13:16:05;;;;;;;2.00;1.10;;;;;;;;;;5025913;28;20270;-77
2021/09/12 13:18:45;;;;;;;3.37;1.30;;;25.60;1.00;;;;;;5021039;28;20415;-78
2021/09/12 13:21:14;;;;;;;1.23;1.00;;;25.60;1.00;;;;;;5017614;28;20423;-77
2021/09/12 13:24:08;;;;;;;1.20;1.10;;;25.40;1.00;;;;;;5034010;28;20455;-78
2021/09/12 13:26:38;;;;;;;2.60;1.30;;;25.30;1.00;;;;;;5034238;28;20403;-78
2021/09/12 13:29:08;;;;;;;1.40;1.30;;;25.20;1.00;;;;;;5033889;28;20445;-76
2021/09/12 13:31:34;;;;;;;3.00;1.00;;;25.30;1.00;;;;;;5030449;28;20930;-76
2021/09/12 13:34:14;;;;;;;1.97;1.37;;;25.30;1.00;;;;;;5014373;28;20408;-76
2021/09/12 13:37:08;;;;;;;0.90;0.90;;;25.40;1.00;;;;;;5014613;28;20186;-76
2021/09/12 13:39:50;;;;;;;1.50;1.20;;;25.80;1.00;;;;;;5017221;28;20938;-77
2021/09/12 13:42:16;;;;;;;1.43;1.33;;;25.80;1.00;;;;;;5034299;28;20406;-76
2021/09/12 13:44:57;;;;;;;2.80;1.57;;;;;;;;;;5034512;28;20413;-79
2021/09/12 13:47:23;;;;;;;3.17;1.50;;;25.90;1.00;;;;;;5033370;28;20175;-78
2021/09/12 13:49:49;;;;;;;2.80;1.77;;;25.90;1.00;;;;;;5033406;28;20503;-79
2021/09/12 13:52:26;;;;;;;1.13;1.00;;;26.00;1.00;;;;;;5026778;28;20422;-78
2021/09/12 13:55:14;;;;;;;2.63;1.23;;;26.00;1.00;;;;;;5013970;28;20399;-77
2021/09/12 13:57:40;;;;;;;1.40;1.30;;;;;;;;;;5032420;28;20447;-78
2021/09/12 14:00:14;;;;;;;2.40;1.50;;;26.00;1.00;;;;;;5033438;28;20437;-78
2021/09/12 14:02:45;;;;;;;1.27;1.17;;;25.90;1.00;;;;;;5034024;28;20439;-78
2021/09/12 14:05:44;;;;;;;2.77;1.20;;;25.90;1.00;;;;;;5033091;28;20437;-78
2021/09/12 14:08:44;;;;;;;3.10;1.43;;;26.00;1.00;;;;;;5033592;28;20451;-77
2021/09/12 14:11:44;;;;;;;1.53;1.20;;;26.10;1.00;;;;;;5032995;28;20934;-78
2021/09/12 14:14:14;;;;;;;6.33;1.30;;;26.30;1.00;;;;;;5030160;28;20522;-78
2021/09/12 14:17:14;;;;;;;2.40;1.20;;;26.40;1.00;;;;;;5018641;28;20433;-78
2021/09/12 14:19:44;;;;;;;5.97;1.17;;;26.50;1.00;;;;;;5018421;28;20414;-78
2021/09/12 14:22:14;;;;;;;4.47;1.80;;;26.60;1.00;;;;;;5032903;28;20429;-78
2021/09/12 14:24:44;;;;;;;1.40;1.30;;;26.50;1.00;;;;;;5033370;28;20422;-78
2021/09/12 14:27:10;;;;;;;2.03;1.23;;;26.30;1.00;;;;;;5033445;28;20398;-77
2021/09/12 14:29:44;;;;;;;1.87;1.10;;;26.40;1.00;;;;;;5033338;28;20949;-75
2021/09/12 14:32:14;;;;;;;3.53;1.53;;;26.40;1.00;;;;;;5032001;28;20695;-79
2021/09/12 14:34:44;;;;;;;1.30;1.10;;;26.30;1.00;;;;;;5033251;28;20390;-78
2021/09/12 14:37:43;;;;;;;1.47;1.37;;;;;;;;;;5033294;28;20391;-78
2021/09/12 14:40:44;;;;;;;1.73;1.23;;;26.50;1.00;;;;;;5032509;28;20917;-78
2021/09/12 14:43:14;;;;;;;1.27;1.17;;;26.80;1.00;;;;;;5028016;28;20475;-79
2021/09/12 14:46:14;;;;;;;0.97;0.93;;;27.00;1.00;;;;;;5032835;28;20947;-78
2021/09/12 14:48:44;;;;;;;2.77;1.33;;;26.90;1.00;;;;;;5033010;28;20779;-80
2021/09/12 14:51:32;;;;;;;1.87;1.20;;;26.70;1.00;;;;;;5032238;28;20793;-77
2021/09/12 14:54:43;;;;;;;1.47;1.20;;;26.50;1.00;;;;;;5019648;28;20838;-79
2021/09/12 15:00:44;;;;;;;1.70;1.20;;;26.20;1.00;;;;;;5017140;28;20432;-80
2021/09/12 15:03:14;;;;;;;1.33;1.20;;;26.10;1.00;;;;;;5036319;28;20531;-81
2021/09/12 15:05:44;;;;;;;1.10;1.00;;;;;;;;;;5036460;28;20489;-80
2021/09/12 15:08:19;;;;;;;1.63;1.17;;;27.00;1.00;;;;;;5036171;28;20425;-80
2021/09/12 15:10:46;;;;;;;1.73;1.13;;;28.50;99.90;;;;;;5023270;28;21022;-80
2021/09/12 15:13:14;;;;;;;4.50;1.40;;;30.00;99.90;;;;;;5031140;28;20457;-80
2021/09/12 15:15:44;;;;;;;0.80;0.80;;;31.40;99.90;;;;;;5024006;28;20485;-79
2021/09/12 15:18:14;;;;;;;1.20;1.10;;;32.50;99.90;;;;;;5031417;28;20933;-79
2021/09/12 15:20:44;;;;;;;4.60;1.40;;;33.40;99.90;;;;;;5035950;28;20451;-79
2021/09/12 15:23:49;;;;;;;2.40;1.23;;;34.60;99.90;;;;;;5020922;28;20458;-79
2021/09/12 15:26:37;;;;;;;3.07;1.20;;;;;;;;;;5028226;28;20411;-78
2021/09/12 15:29:14;;;;;;;0.80;0.80;;;36.80;99.90;;;;;;5036015;28;20451;-79
2021/09/12 15:31:44;;;;;;;1.43;1.07;;;37.50;99.90;;;;;;5037037;28;20510;-79
2021/09/12 15:34:15;;;;;;;5.03;0.90;;;37.60;99.90;;;;;;5036163;28;20506;-82
2021/09/12 15:36:44;;;;;;;1.57;0.80;;;37.60;99.90;;;;;;5020333;28;20424;-82
2021/09/12 15:39:10;;;;;;;2.67;1.13;;;37.80;99.90;;;;;;5033381;28;20474;-81
2021/09/12 15:41:44;;;;;;;0.87;0.80;;;38.20;99.90;;;;;;5036613;28;20427;-81
2021/09/12 15:44:14;;;;;;;1.10;1.00;;;38.00;99.90;;;;;;5035989;28;20160;-80
2021/09/12 15:46:44;;;;;;;1.17;0.90;;;36.10;99.90;;;;;;5021939;28;20762;-81
2021/09/12 15:49:14;;;;;;;1.57;1.10;;;35.60;99.90;;;;;;5032998;28;20497;-80
2021/09/12 15:51:44;;;;;;;1.30;0.97;;;35.00;99.90;;;;;;5035845;28;20407;-81
2021/09/12 15:54:10;;;;;;;4.73;1.43;;;35.80;99.90;;;;;;5036028;28;20402;-80
2021/09/12 15:56:44;;;;;;;2.60;0.90;;;35.80;99.90;;;;;;5025891;28;20484;-81
2021/09/12 15:59:14;;;;;;;1.17;0.73;;;37.20;99.90;;;;;;5032765;28;20537;-83
2021/09/12 16:01:41;;;;;;;1.37;0.90;;;37.00;99.90;;;;;;5035727;28;20399;-81
2021/09/12 16:04:07;;;;;;;5.03;1.20;;;37.10;99.90;;;;;;5033700;28;20462;-80
2021/09/12 16:06:32;;;;;;;3.07;1.47;;;36.60;99.90;;;;;;5021998;28;20444;-80
2021/09/12 16:08:58;;;;;;;5.73;1.10;;;35.50;99.90;;;;;;5029592;28;20192;-80
2021/09/12 16:11:24;;;;;;;2.43;1.10;;;;;;;;;;5035044;28;20153;-80
2021/09/12 16:13:50;;;;;;;2.80;1.30;;;;;;;;;;5032210;28;20227;-81
2021/09/12 16:16:44;;;;;;;3.33;1.10;;;32.30;99.90;;;;;;5026871;28;20421;-80
2021/09/12 16:19:14;;;;;;;4.53;1.37;;;31.30;99.90;;;;;;5031034;28;20481;-81
2021/09/12 16:21:45;;;;;;;1.73;1.10;;;31.20;99.90;;;;;;5035264;28;20419;-81
2021/09/12 16:24:44;;;;;;;2.83;1.17;;;30.40;99.90;;;;;;5035486;28;21021;-81
2021/09/12 16:27:14;;;;;;;1.30;1.10;;;30.70;99.90;;;;;;5015417;28;20469;-80
2021/09/12 16:29:47;;;;;;;1.23;1.13;;;30.80;99.90;;;;;;5029742;28;20520;-83
2021/09/12 16:32:14;;;;;;;1.20;1.10;;;30.90;99.90;;;;;;5035045;28;20419;-79
2021/09/12 16:34:44;;;;;;;1.23;1.07;;;31.00;99.90;;;;;;5022572;28;20436;-79
2021/09/12 16:37:20;;;;;;;5.23;1.37;;;;;;;;;;5015118;28;20439;-79
2021/09/12 16:40:21;;;;;;;2.73;1.20;;;29.90;99.90;;;;;;5029712;28;20438;-78
2021/09/12 16:43:02;;;;;;;2.70;1.30;;;29.40;99.90;;;;;;5035292;28;20413;-78
2021/09/12 16:52:27;;;;;;;2.40;1.30;;;27.60;99.90;;;;;;5014951;28;20398;-79
2021/09/12 16:55:44;;;;;;;1.43;1.30;;;27.00;99.90;;;;;;5014787;28;20919;-79
2021/09/12 17:11:37;;;;;;;8.20;1.93;;;24.30;99.90;;;;;;5014235;28;20405;-77
2021/09/12 17:14:32;;;;;;;8.17;1.90;;;24.00;1.00;;;;;;5020313;28;20441;-79
2021/09/12 17:16:57;;;;;;;2.87;2.03;;;23.70;1.00;;;;;;5044500;28;20190;-79